createdAt,value
2018-05-11T00:00:11.404Z,83.75
2018-05-11T00:02:37.822Z,84.43
2018-05-11T00:05:04.376Z,83.83
2018-05-11T00:07:30.811Z,83.78
2018-05-11T00:09:57.203Z,83.62
2018-05-11T00:12:24.034Z,83.67
2018-05-11T00:14:50.407Z,83.94
2018-05-11T00:17:16.819Z,83.99
2018-05-11T00:19:43.203Z,83.99
2018-05-11T00:22:10.374Z,83.67
2018-05-11T00:24:36.875Z,83.49
2018-05-11T00:27:03.281Z,84.21
2018-05-11T00:29:29.814Z,84.26
2018-05-11T00:31:56.369Z,84.56
2018-05-11T00:34:22.856Z,84.42
2018-05-11T00:36:49.402Z,85.99
2018-05-11T00:39:15.801Z,85.22
2018-05-11T00:41:42.286Z,85.55
2018-05-11T00:44:08.741Z,87.07
2018-05-11T00:46:35.188Z,87.49
2018-05-11T00:49:02.730Z,87.82
2018-05-11T00:51:29.225Z,87.98
2018-05-11T00:53:55.654Z,87.84
2018-05-11T00:56:22.097Z,88.00
2018-05-11T00:58:48.440Z,87.75
2018-05-11T01:01:14.827Z,88.17
2018-05-11T01:03:41.199Z,86.85
2018-05-11T01:06:07.622Z,86.79
2018-05-11T01:08:34.045Z,87.10
2018-05-11T01:11:00.480Z,87.61
2018-05-11T01:13:26.836Z,87.03
2018-05-11T01:15:53.265Z,87.30
2018-05-11T01:18:19.711Z,87.88
2018-05-11T01:20:46.135Z,88.70
2018-05-11T01:23:12.523Z,88.93
2018-05-11T01:25:38.899Z,89.11
2018-05-11T01:28:05.323Z,89.08
2018-05-11T01:30:32.058Z,89.13
2018-05-11T01:32:58.550Z,88.87
2018-05-11T01:35:24.950Z,88.78
2018-05-11T01:37:51.288Z,89.04
2018-05-11T01:40:17.752Z,88.72
2018-05-11T01:42:44.121Z,89.15
2018-05-11T01:45:10.581Z,89.00
2018-05-11T01:47:36.978Z,89.18
2018-05-11T01:50:03.398Z,89.43
2018-05-11T01:52:29.796Z,89.65
2018-05-11T01:54:56.241Z,89.60
2018-05-11T01:57:22.790Z,88.31
2018-05-11T01:59:49.222Z,88.79
2018-05-11T02:02:15.565Z,88.66
2018-05-11T02:04:42.048Z,89.74
2018-05-11T02:07:08.468Z,90.25
2018-05-11T02:09:35.632Z,90.30
2018-05-11T02:12:02.079Z,89.98
2018-05-11T02:14:28.507Z,90.03
2018-05-11T02:16:54.875Z,90.14
2018-05-11T02:19:21.299Z,90.65
2018-05-11T02:21:47.737Z,90.55
2018-05-11T02:24:14.466Z,90.46
2018-05-11T02:26:40.825Z,90.01
2018-05-11T02:29:07.212Z,89.78
2018-05-11T02:31:33.630Z,89.94
2018-05-11T02:34:00.057Z,90.33
2018-05-11T02:36:27.194Z,89.56
2018-05-11T02:38:53.564Z,90.46
2018-05-11T02:41:19.969Z,91.12
2018-05-11T02:43:46.317Z,90.48
2018-05-11T02:46:12.727Z,90.89
2018-05-11T02:48:39.202Z,89.33
2018-05-11T02:51:05.556Z,90.00
2018-05-11T02:53:31.943Z,90.73
2018-05-11T02:55:59.254Z,91.13
2018-05-11T02:58:26.382Z,91.44
2018-05-11T03:00:52.858Z,91.36
2018-05-11T03:03:19.823Z,91.08
2018-05-11T03:05:46.255Z,91.56
2018-05-11T03:08:12.718Z,91.59
2018-05-11T03:10:39.948Z,91.83
2018-05-11T03:13:06.376Z,92.47
2018-05-11T03:15:33.527Z,93.13
2018-05-11T03:17:59.963Z,93.40
2018-05-11T03:20:26.608Z,92.92
2018-05-11T03:22:53.135Z,93.10
2018-05-11T03:25:19.574Z,92.70
2018-05-11T03:27:45.982Z,92.75
2018-05-11T03:30:12.431Z,92.44
2018-05-11T03:32:38.952Z,92.22
2018-05-11T03:35:05.369Z,92.40
2018-05-11T03:37:31.720Z,92.50
2018-05-11T03:39:58.161Z,92.65
2018-05-11T03:42:24.543Z,92.72
2018-05-11T03:44:51.903Z,92.93
2018-05-11T03:47:18.452Z,92.35
2018-05-11T03:49:45.055Z,92.41
2018-05-11T03:52:12.163Z,92.58
2018-05-11T03:54:38.497Z,92.79
2018-05-11T03:57:04.952Z,92.53
2018-05-11T03:59:31.285Z,92.32
2018-05-11T04:02:16.276Z,92.41
2018-05-11T04:05:01.280Z,92.80
2018-05-11T04:10:40.025Z,92.42
2018-05-11T04:13:06.426Z,92.15
2018-05-11T04:15:33.602Z,91.58
2018-05-11T04:18:00.076Z,92.07
2018-05-11T04:20:26.520Z,90.85
2018-05-11T04:22:53.654Z,90.79
2018-05-11T04:25:19.984Z,90.95
2018-05-11T04:27:46.946Z,90.98
2018-05-11T04:30:14.032Z,90.42
2018-05-11T04:32:40.438Z,90.87
2018-05-11T04:35:06.797Z,90.49
2018-05-11T04:37:33.903Z,90.68
2018-05-11T04:40:01.151Z,90.98
2018-05-11T04:42:28.459Z,90.57
2018-05-11T04:44:54.828Z,90.50
2018-05-11T04:47:21.975Z,90.25
2018-05-11T04:49:48.705Z,90.14
2018-05-11T04:52:15.829Z,90.18
2018-05-11T04:54:42.219Z,90.10
2018-05-11T04:57:08.637Z,89.38
2018-05-11T04:59:35.740Z,88.83
2018-05-11T05:02:02.215Z,87.86
2018-05-11T05:04:28.656Z,87.17
2018-05-11T05:06:55.192Z,86.73
2018-05-11T05:09:21.531Z,85.37
2018-05-11T05:11:47.975Z,85.20
2018-05-11T05:14:14.584Z,85.80
2018-05-11T05:16:40.957Z,86.21
2018-05-11T05:19:07.479Z,85.43
2018-05-11T05:21:34.590Z,82.84
2018-05-11T05:24:01.758Z,82.17
2018-05-11T05:26:28.264Z,82.36
2018-05-11T05:28:54.629Z,83.00
2018-05-11T05:31:21.076Z,82.11
2018-05-11T05:33:49.650Z,82.22
2018-05-11T05:36:16.144Z,80.99
2018-05-11T05:38:42.519Z,77.94
2018-05-11T05:41:08.906Z,72.23
2018-05-11T05:43:35.368Z,67.94
2018-05-11T05:46:01.885Z,65.53
2018-05-11T05:48:28.314Z,65.52
2018-05-11T05:50:54.761Z,63.80
2018-05-11T05:53:21.130Z,63.58
2018-05-11T05:55:47.558Z,59.87
2018-05-11T05:58:13.893Z,59.49
2018-05-11T06:00:40.327Z,57.34
2018-05-11T06:03:06.754Z,54.33
2018-05-11T06:05:33.138Z,54.66
2018-05-11T06:08:03.861Z,56.98
2018-05-11T06:10:31.047Z,56.83
2018-05-11T06:12:57.461Z,58.19
2018-05-11T06:15:23.936Z,56.62
2018-05-11T06:17:50.394Z,56.67
2018-05-11T06:20:16.952Z,57.01
2018-05-11T06:22:43.554Z,60.60
2018-05-11T06:25:09.943Z,59.07
2018-05-11T06:27:36.412Z,58.65
2018-05-11T06:30:03.111Z,57.62
2018-05-11T06:32:29.564Z,56.18
2018-05-11T06:34:56.152Z,54.89
2018-05-11T06:37:26.989Z,54.80
2018-05-11T06:39:54.497Z,56.42
2018-05-11T06:42:20.916Z,55.12
2018-05-11T06:44:47.387Z,52.67
2018-05-11T06:47:13.793Z,50.79
2018-05-11T06:49:40.251Z,55.19
2018-05-11T06:52:07.403Z,56.93
2018-05-11T06:54:33.916Z,56.75
2018-05-11T06:57:00.478Z,58.38
2018-05-11T06:59:27.883Z,60.26
2018-05-11T07:01:55.176Z,62.59
2018-05-11T07:04:22.702Z,63.79
2018-05-11T07:06:49.415Z,65.21
2018-05-11T07:09:16.009Z,68.05
2018-05-11T07:11:42.609Z,68.04
2018-05-11T07:14:09.054Z,68.55
2018-05-11T07:16:36.670Z,70.19
2018-05-11T07:19:07.499Z,69.27
2018-05-11T07:21:34.018Z,68.23
2018-05-11T07:24:01.008Z,67.32
2018-05-11T07:26:27.519Z,67.84
2018-05-11T07:28:53.979Z,66.01
2018-05-11T07:31:20.474Z,66.80
2018-05-11T07:33:46.954Z,66.02
2018-05-11T07:36:13.424Z,67.14
2018-05-11T07:38:40.485Z,67.83
2018-05-11T07:41:07.453Z,65.95
2018-05-11T07:43:33.982Z,66.47
2018-05-11T07:46:00.448Z,65.85
2018-05-11T07:48:26.960Z,66.04
2018-05-11T07:50:53.526Z,65.22
2018-05-11T07:53:20.869Z,64.32
2018-05-11T07:55:47.308Z,67.18
2018-05-11T07:58:13.830Z,66.94
2018-05-11T08:00:40.379Z,67.22
2018-05-11T08:03:07.808Z,66.52
2018-05-11T08:05:34.317Z,66.47
2018-05-11T08:08:01.203Z,64.53
2018-05-11T08:10:27.615Z,64.54
2018-05-11T08:12:54.231Z,65.59
2018-05-11T08:15:20.843Z,66.28
2018-05-11T08:17:47.436Z,65.12
2018-05-11T08:20:13.979Z,65.33
2018-05-11T08:22:40.958Z,65.56
2018-05-11T08:25:08.003Z,62.92
2018-05-11T08:27:34.539Z,61.03
2018-05-11T08:30:01.135Z,62.76
2018-05-11T08:32:28.357Z,62.04
2018-05-11T08:34:54.919Z,62.30
2018-05-11T08:37:21.352Z,63.96
2018-05-11T08:39:48.007Z,63.18
2018-05-11T08:42:14.493Z,63.09
2018-05-11T08:44:41.654Z,60.88
2018-05-11T08:47:08.941Z,63.75
2018-05-11T08:49:36.194Z,62.44
2018-05-11T08:52:03.028Z,62.79
2018-05-11T08:54:30.425Z,61.32
2018-05-11T08:56:56.979Z,61.18
2018-05-11T08:59:25.118Z,61.83
2018-05-11T09:01:52.323Z,62.12
2018-05-11T09:04:18.824Z,60.76
2018-05-11T09:06:45.288Z,59.79
2018-05-11T09:09:14.322Z,60.40
2018-05-11T09:11:41.590Z,59.60
2018-05-11T09:14:08.455Z,59.38
2018-05-11T09:16:35.092Z,58.58
2018-05-11T09:19:01.636Z,58.98
2018-05-11T09:21:28.307Z,57.82
2018-05-11T09:23:55.517Z,57.09
2018-05-11T09:26:22.092Z,59.50
2018-05-11T09:28:49.450Z,59.28
2018-05-11T09:31:16.615Z,56.83
2018-05-11T09:33:43.082Z,56.02
2018-05-11T09:36:09.871Z,55.54
2018-05-11T09:38:37.090Z,55.27
2018-05-11T09:41:03.575Z,56.78
2018-05-11T09:43:30.761Z,56.24
2018-05-11T09:45:57.223Z,55.53
2018-05-11T09:48:23.711Z,53.62
2018-05-11T09:50:50.169Z,53.51
2018-05-11T09:53:16.860Z,53.76
2018-05-11T09:55:43.289Z,53.74
2018-05-11T09:58:09.753Z,53.18
2018-05-11T10:00:36.302Z,52.43
2018-05-11T10:03:02.884Z,53.49
2018-05-11T10:05:29.344Z,52.95
2018-05-11T10:07:56.217Z,52.95
2018-05-11T10:10:22.507Z,55.35
2018-05-11T10:12:48.969Z,53.78
2018-05-11T10:15:15.886Z,54.79
2018-05-11T10:17:42.322Z,54.24
2018-05-11T10:20:08.878Z,55.53
2018-05-11T10:22:35.443Z,54.97
2018-05-11T10:25:02.024Z,55.20
2018-05-11T10:27:28.451Z,54.31
2018-05-11T10:29:54.932Z,53.25
2018-05-11T10:32:22.183Z,52.02
2018-05-11T10:34:48.703Z,52.41
2018-05-11T10:37:19.502Z,53.16
2018-05-11T10:39:45.980Z,52.97
2018-05-11T10:42:12.438Z,54.78
2018-05-11T10:44:39.916Z,51.82
2018-05-11T10:47:06.494Z,52.50
2018-05-11T10:49:32.966Z,53.69
2018-05-11T10:51:59.587Z,53.92
2018-05-11T10:54:26.001Z,53.41
2018-05-11T10:56:52.515Z,53.10
2018-05-11T10:59:19.564Z,51.84
2018-05-11T11:01:46.103Z,52.15
2018-05-11T11:04:12.631Z,48.38
2018-05-11T11:06:43.557Z,48.98
2018-05-11T11:09:10.019Z,46.92
2018-05-11T11:11:36.458Z,48.43
2018-05-11T11:14:02.979Z,46.24
2018-05-11T11:16:29.451Z,46.61
2018-05-11T11:18:55.834Z,46.15
2018-05-11T11:21:22.415Z,44.88
2018-05-11T11:23:48.920Z,47.43
2018-05-11T11:26:15.407Z,47.37
2018-05-11T11:28:42.539Z,48.30
2018-05-11T11:31:09.721Z,49.64
2018-05-11T11:33:36.271Z,49.55
2018-05-11T11:36:02.779Z,48.47
2018-05-11T11:38:29.231Z,47.11
2018-05-11T11:40:55.706Z,46.87
2018-05-11T11:43:22.378Z,45.81
2018-05-11T11:45:48.883Z,45.19
2018-05-11T11:48:15.323Z,45.81
2018-05-11T11:50:42.551Z,45.17
2018-05-11T11:53:09.327Z,43.93
2018-05-11T11:55:36.627Z,44.58
2018-05-11T11:58:03.117Z,44.67
2018-05-11T12:00:29.541Z,43.10
2018-05-11T12:02:56.045Z,42.07
2018-05-11T12:05:22.570Z,42.73
2018-05-11T12:07:49.738Z,43.96
2018-05-11T12:10:16.374Z,42.89
2018-05-11T12:12:42.979Z,42.99
2018-05-11T12:15:09.425Z,44.49
2018-05-11T12:17:35.859Z,44.43
2018-05-11T12:20:02.428Z,42.82
2018-05-11T12:22:29.668Z,40.56
2018-05-11T12:24:56.929Z,39.43
2018-05-11T12:27:23.473Z,38.06
2018-05-11T12:29:50.124Z,39.31
2018-05-11T12:32:16.613Z,41.95
2018-05-11T12:34:43.065Z,40.43
2018-05-11T12:37:10.321Z,40.90
2018-05-11T12:39:37.508Z,42.96
2018-05-11T12:42:04.237Z,41.09
2018-05-11T12:44:30.660Z,41.34
2018-05-11T12:46:57.106Z,42.21
2018-05-11T12:49:23.578Z,40.29
2018-05-11T12:51:49.972Z,41.17
2018-05-11T12:54:16.435Z,41.72
2018-05-11T12:56:42.901Z,42.61
2018-05-11T12:59:10.029Z,42.54
2018-05-11T13:01:36.450Z,44.17
2018-05-11T13:04:02.887Z,44.08
2018-05-11T13:06:29.668Z,43.05
2018-05-11T13:08:56.402Z,41.81
2018-05-11T13:11:22.894Z,40.73
2018-05-11T13:13:49.444Z,39.46
2018-05-11T13:16:16.657Z,39.38
2018-05-11T13:18:43.225Z,41.11
2018-05-11T13:21:09.861Z,39.32
2018-05-11T13:23:36.430Z,39.67
2018-05-11T13:26:02.914Z,38.94
2018-05-11T13:28:29.399Z,37.89
2018-05-11T13:30:55.866Z,38.31
2018-05-11T13:33:22.431Z,39.39
2018-05-11T13:35:48.940Z,39.25
2018-05-11T13:38:15.396Z,38.66
2018-05-11T13:40:41.855Z,39.02
2018-05-11T13:43:08.368Z,38.40
2018-05-11T13:45:34.879Z,39.09
2018-05-11T13:48:01.441Z,39.59
2018-05-11T13:50:28.777Z,39.46
2018-05-11T13:52:55.274Z,39.52
2018-05-11T13:55:21.739Z,40.00
2018-05-11T13:57:48.180Z,39.53
2018-05-11T14:00:14.575Z,40.91
2018-05-11T14:02:41.028Z,40.84
2018-05-11T14:05:07.539Z,42.22
2018-05-11T14:07:34.149Z,42.21
2018-05-11T14:10:00.680Z,42.10
2018-05-11T14:12:27.141Z,41.90
2018-05-11T14:14:53.873Z,41.16
2018-05-11T14:17:20.414Z,41.98
2018-05-11T14:19:46.989Z,41.84
2018-05-11T14:22:14.192Z,40.90
2018-05-11T14:24:41.353Z,41.59
2018-05-11T14:27:07.823Z,42.78
2018-05-11T14:29:34.236Z,40.46
2018-05-11T14:32:00.966Z,39.68
2018-05-11T14:34:27.576Z,39.57
2018-05-11T14:36:54.234Z,39.67
2018-05-11T14:39:21.600Z,40.23
2018-05-11T14:41:47.953Z,39.69
2018-05-11T14:44:14.475Z,40.04
2018-05-11T14:46:41.745Z,40.49
2018-05-11T14:49:09.085Z,39.67
2018-05-11T14:51:35.579Z,40.15
2018-05-11T14:54:02.120Z,41.29
2018-05-11T14:56:28.611Z,42.04
2018-05-11T14:58:55.189Z,43.01
2018-05-11T15:01:21.672Z,43.54
2018-05-11T15:03:48.144Z,43.83
2018-05-11T15:06:14.633Z,43.37
2018-05-11T15:08:41.902Z,42.86
2018-05-11T15:11:08.368Z,43.26
2018-05-11T15:13:34.807Z,44.08
2018-05-11T15:16:01.268Z,43.55
2018-05-11T15:18:27.678Z,43.91
2018-05-11T15:20:54.166Z,43.53
2018-05-11T15:23:20.754Z,43.87
2018-05-11T15:25:47.226Z,43.54
2018-05-11T15:28:13.759Z,44.73
2018-05-11T15:30:41.016Z,44.58
2018-05-11T15:33:07.494Z,45.52
2018-05-11T15:35:34.090Z,44.90
2018-05-11T15:38:00.521Z,45.14
2018-05-11T15:40:27.184Z,45.27
2018-05-11T15:42:53.521Z,45.26
2018-05-11T15:45:20.060Z,45.14
2018-05-11T15:47:46.596Z,44.78
2018-05-11T15:50:13.032Z,44.96
2018-05-11T15:52:39.904Z,45.40
2018-05-11T15:55:07.368Z,45.32
2018-05-11T15:57:34.086Z,45.58
2018-05-11T16:00:00.743Z,43.64
2018-05-11T16:02:27.216Z,42.20
2018-05-11T16:04:53.898Z,41.42
2018-05-11T16:07:20.369Z,41.13
2018-05-11T16:09:47.370Z,40.90
2018-05-11T16:12:13.849Z,41.63
2018-05-11T16:14:44.226Z,42.52
2018-05-11T16:17:10.759Z,43.53
2018-05-11T16:19:37.853Z,42.07
2018-05-11T16:22:04.314Z,43.48
2018-05-11T16:24:30.741Z,42.72
2018-05-11T16:26:57.223Z,44.26
2018-05-11T16:29:23.857Z,44.52
2018-05-11T16:31:50.361Z,44.86
2018-05-11T16:34:16.856Z,44.84
2018-05-11T16:36:43.444Z,45.32
2018-05-11T16:39:09.999Z,45.07
2018-05-11T16:41:36.622Z,45.59
2018-05-11T16:44:03.139Z,45.08
2018-05-11T16:46:29.767Z,44.51
2018-05-11T16:48:56.236Z,45.05
2018-05-11T16:51:22.846Z,46.16
2018-05-11T16:53:50.055Z,46.24
2018-05-11T16:56:16.710Z,48.20
2018-05-11T16:58:43.350Z,47.06
2018-05-11T17:01:09.903Z,47.57
2018-05-11T17:03:36.520Z,47.59
2018-05-11T17:06:03.079Z,47.23
2018-05-11T17:08:29.772Z,47.37
2018-05-11T17:10:56.626Z,47.61
2018-05-11T17:13:23.235Z,47.33
2018-05-11T17:15:50.578Z,47.37
2018-05-11T17:18:17.366Z,47.92
2018-05-11T17:20:43.932Z,47.51
2018-05-11T17:23:10.503Z,48.16
2018-05-11T17:25:36.971Z,48.36
2018-05-11T17:28:03.509Z,48.69
2018-05-11T17:30:30.440Z,48.77
2018-05-11T17:33:01.428Z,49.14
2018-05-11T17:35:28.042Z,48.92
2018-05-11T17:37:54.669Z,49.81
2018-05-11T17:40:21.108Z,49.54
2018-05-11T17:42:47.644Z,49.91
2018-05-11T17:45:14.201Z,50.04
2018-05-11T17:47:41.498Z,49.55
2018-05-11T17:50:08.001Z,50.27
2018-05-11T17:52:35.373Z,50.80
2018-05-11T17:55:01.921Z,50.56
2018-05-11T17:57:28.395Z,51.06
2018-05-11T17:59:56.069Z,51.88
2018-05-11T18:02:23.332Z,52.34
2018-05-11T18:04:49.771Z,52.36
2018-05-11T18:07:16.187Z,52.72
2018-05-11T18:09:42.851Z,52.99
2018-05-11T18:12:09.388Z,53.20
2018-05-11T18:14:36.896Z,53.37
2018-05-11T18:17:03.389Z,53.21
2018-05-11T18:19:29.940Z,53.65
2018-05-11T18:21:56.846Z,54.19
2018-05-11T18:24:23.255Z,54.20
2018-05-11T18:26:49.706Z,54.41
2018-05-11T18:29:17.079Z,54.53
2018-05-11T18:31:43.594Z,55.17
2018-05-11T18:34:11.856Z,55.61
2018-05-11T18:36:39.076Z,56.34
2018-05-11T18:39:05.535Z,56.68
2018-05-11T18:41:31.985Z,56.58
2018-05-11T18:43:59.245Z,56.49
2018-05-11T18:46:25.778Z,57.00
2018-05-11T18:48:52.315Z,57.18
2018-05-11T18:51:18.850Z,57.76
2018-05-11T18:53:45.605Z,57.94
2018-05-11T18:56:12.691Z,57.90
2018-05-11T18:58:39.903Z,58.32
2018-05-11T19:01:06.541Z,58.22
2018-05-11T19:03:33.169Z,57.81
2018-05-11T19:05:59.695Z,58.39
2018-05-11T19:08:26.408Z,58.82
2018-05-11T19:10:52.925Z,59.06
2018-05-11T19:13:20.266Z,59.02
2018-05-11T19:15:46.806Z,59.32
2018-05-11T19:18:13.312Z,59.85
2018-05-11T19:20:43.947Z,59.83
2018-05-11T19:23:10.441Z,59.80
2018-05-11T19:25:37.011Z,59.96
2018-05-11T19:28:03.717Z,60.22
2018-05-11T19:30:30.263Z,60.55
2018-05-11T19:32:56.859Z,60.58
2018-05-11T19:35:23.358Z,60.28
2018-05-11T19:37:50.035Z,60.29
2018-05-11T19:40:16.504Z,60.34
2018-05-11T19:42:43.128Z,60.93
2018-05-11T19:45:09.590Z,60.57
2018-05-11T19:47:36.082Z,60.96
2018-05-11T19:50:02.594Z,60.60
2018-05-11T19:52:29.080Z,60.52
2018-05-11T19:54:55.560Z,60.57
2018-05-11T19:57:22.125Z,60.34
2018-05-11T19:59:48.543Z,60.54
2018-05-11T20:02:15.053Z,60.48
2018-05-11T20:04:41.521Z,60.74
2018-05-11T20:07:08.037Z,61.23
2018-05-11T20:09:34.561Z,61.07
2018-05-11T20:12:01.352Z,60.65
2018-05-11T20:14:27.974Z,61.21
2018-05-11T20:16:54.454Z,61.02
2018-05-11T20:19:20.970Z,61.97
2018-05-11T20:21:47.609Z,61.94
2018-05-11T20:24:14.446Z,61.46
2018-05-11T20:26:40.993Z,61.73
2018-05-11T20:29:08.508Z,62.45
2018-05-11T20:31:34.955Z,62.55
2018-05-11T20:34:01.539Z,62.38
2018-05-11T20:36:28.276Z,62.51
2018-05-11T20:38:55.651Z,62.14
2018-05-11T20:41:22.328Z,62.71
2018-05-11T20:43:48.837Z,62.47
2018-05-11T20:46:15.349Z,62.55
2018-05-11T20:48:42.640Z,62.52
2018-05-11T20:51:09.989Z,62.54
2018-05-11T20:53:36.757Z,62.91
2018-05-11T20:56:03.257Z,62.45
2018-05-11T20:58:29.854Z,62.81
2018-05-11T21:00:56.534Z,62.93
2018-05-11T21:03:23.056Z,62.58
2018-05-11T21:05:50.242Z,62.75
2018-05-11T21:08:16.772Z,62.54
2018-05-11T21:10:43.282Z,62.99
2018-05-11T21:13:09.721Z,62.65
2018-05-11T21:15:36.150Z,62.69
2018-05-11T21:18:03.673Z,62.81
2018-05-11T21:20:30.992Z,62.94
2018-05-11T21:22:57.459Z,63.12
2018-05-11T21:25:24.678Z,63.20
2018-05-11T21:27:51.172Z,62.81
2018-05-11T21:30:17.658Z,63.06
2018-05-11T21:32:44.130Z,63.52
2018-05-11T21:35:10.582Z,63.18
2018-05-11T21:37:37.067Z,63.38
2018-05-11T21:40:03.560Z,63.47
2018-05-11T21:42:30.015Z,63.56
2018-05-11T21:44:56.467Z,63.22
2018-05-11T21:47:22.995Z,62.49
2018-05-11T21:49:50.371Z,62.82
2018-05-11T21:52:17.617Z,62.99
2018-05-11T21:54:44.836Z,61.98
2018-05-11T21:57:11.470Z,62.14
2018-05-11T21:59:38.126Z,62.34
2018-05-11T22:02:04.644Z,62.21
2018-05-11T22:04:31.152Z,62.52
2018-05-11T22:06:57.593Z,62.05
2018-05-11T22:09:24.154Z,61.83
2018-05-11T22:11:50.601Z,61.57
2018-05-11T22:14:17.931Z,62.20
2018-05-11T22:16:44.319Z,61.85
2018-05-11T22:19:10.777Z,61.03
2018-05-11T22:21:37.226Z,61.28
2018-05-11T22:24:04.513Z,61.68
2018-05-11T22:26:31.096Z,62.24
2018-05-11T22:28:57.555Z,62.53
2018-05-11T22:31:23.967Z,62.34
2018-05-11T22:33:50.489Z,62.38
2018-05-11T22:36:16.984Z,62.05
2018-05-11T22:38:44.185Z,62.17
2018-05-11T22:41:10.630Z,61.78
2018-05-11T22:43:37.029Z,61.70
2018-05-11T22:46:03.535Z,61.97
2018-05-11T22:48:29.935Z,62.19
2018-05-11T22:50:56.382Z,61.75
2018-05-11T22:53:22.817Z,62.04
2018-05-11T22:55:49.301Z,62.12
2018-05-11T22:58:15.752Z,61.91
2018-05-11T23:00:42.195Z,62.01
2018-05-11T23:03:08.674Z,61.81
2018-05-11T23:05:35.102Z,62.23
2018-05-11T23:08:01.549Z,62.02
2018-05-11T23:10:28.101Z,62.13
2018-05-11T23:12:54.539Z,61.74
2018-05-11T23:15:21.481Z,62.12
2018-05-11T23:17:47.945Z,62.19
2018-05-11T23:20:14.472Z,61.42
2018-05-11T23:22:40.904Z,61.41
2018-05-11T23:25:07.382Z,61.49
2018-05-11T23:27:33.819Z,61.94
2018-05-11T23:30:00.267Z,61.52
2018-05-11T23:32:26.697Z,61.59
2018-05-11T23:34:53.147Z,61.42
2018-05-11T23:37:19.556Z,61.59
2018-05-11T23:39:45.966Z,61.46
2018-05-11T23:42:12.425Z,61.54
2018-05-11T23:44:38.922Z,61.74
2018-05-11T23:47:05.302Z,62.03
2018-05-11T23:49:31.787Z,62.10
2018-05-11T23:51:58.958Z,62.19
2018-05-11T23:54:25.838Z,62.85
2018-05-11T23:56:52.270Z,62.83
2018-05-11T23:59:18.704Z,62.48
